sensor_id;sensor_type;location;lat;lon;timestamp;P1;durP1;ratioP1;P2;durP2;ratioP2
34359;SDS011;20624;55.870;26.506;2024-01-15T00:02:06;12.15;;;5.57;;
34359;SDS011;20624;55.870;26.506;2024-01-15T00:04:38;11.65;;;6.25;;
34359;SDS011;20624;55.870;26.506;2024-01-15T00:07:06;10.18;;;5.63;;
34359;SDS011;20624;55.870;26.506;2024-01-15T00:09:35;8.27;;;4.38;;
34359;SDS011;20624;55.870;26.506;2024-01-15T00:12:03;6.90;;;4.55;;
34359;SDS011;20624;55.870;26.506;2024-01-15T00:14:31;6.70;;;4.13;;
34359;SDS011;20624;55.870;26.506;2024-01-15T00:16:59;11.32;;;4.00;;
34359;SDS011;20624;55.870;26.506;2024-01-15T00:19:27;7.88;;;4.38;;
34359;SDS011;20624;55.870;26.506;2024-01-15T00:21:58;7.15;;;3.53;;
34359;SDS011;20624;55.870;26.506;2024-01-15T00:24:26;5.32;;;3.13;;
34359;SDS011;20624;55.870;26.506;2024-01-15T00:26:54;9.60;;;4.35;;
34359;SDS011;20624;55.870;26.506;2024-01-15T00:29:22;4.68;;;2.30;;
34359;SDS011;20624;55.870;26.506;2024-01-15T00:31:50;6.65;;;2.72;;
34359;SDS011;20624;55.870;26.506;2024-01-15T00:34:18;7.88;;;3.47;;
34359;SDS011;20624;55.870;26.506;2024-01-15T00:36:46;9.50;;;3.33;;
34359;SDS011;20624;55.870;26.506;2024-01-15T00:39:14;7.53;;;3.20;;
34359;SDS011;20624;55.870;26.506;2024-01-15T00:41:43;6.38;;;2.78;;
34359;SDS011;20624;55.870;26.506;2024-01-15T00:44:11;6.22;;;2.63;;
34359;SDS011;20624;55.870;26.506;2024-01-15T00:46:45;4.95;;;2.67;;
34359;SDS011;20624;55.870;26.506;2024-01-15T00:49:13;6.30;;;3.35;;
34359;SDS011;20624;55.870;26.506;2024-01-15T00:51:42;9.73;;;4.07;;
34359;SDS011;20624;55.870;26.506;2024-01-15T00:54:09;5.85;;;3.13;;
34359;SDS011;20624;55.870;26.506;2024-01-15T00:56:37;7.68;;;3.63;;
34359;SDS011;20624;55.870;26.506;2024-01-15T00:59:05;7.88;;;3.28;;
34359;SDS011;20624;55.870;26.506;2024-01-15T01:01:37;4.03;;;2.55;;
34359;SDS011;20624;55.870;26.506;2024-01-15T01:04:05;7.25;;;3.15;;
34359;SDS011;20624;55.870;26.506;2024-01-15T01:06:33;5.15;;;2.85;;
34359;SDS011;20624;55.870;26.506;2024-01-15T01:09:01;4.80;;;2.53;;
34359;SDS011;20624;55.870;26.506;2024-01-15T01:11:29;6.38;;;2.97;;
34359;SDS011;20624;55.870;26.506;2024-01-15T01:13:56;5.43;;;3.17;;
34359;SDS011;20624;55.870;26.506;2024-01-15T01:16:24;6.63;;;3.78;;
34359;SDS011;20624;55.870;26.506;2024-01-15T01:18:52;8.82;;;3.50;;
34359;SDS011;20624;55.870;26.506;2024-01-15T01:21:20;7.15;;;2.92;;
34359;SDS011;20624;55.870;26.506;2024-01-15T01:23:48;7.53;;;3.22;;
34359;SDS011;20624;55.870;26.506;2024-01-15T01:26:17;6.93;;;2.88;;
34359;SDS011;20624;55.870;26.506;2024-01-15T01:28:45;4.47;;;2.28;;
34359;SDS011;20624;55.870;26.506;2024-01-15T01:31:12;6.78;;;2.40;;
34359;SDS011;20624;55.870;26.506;2024-01-15T01:33:40;5.15;;;2.22;;
34359;SDS011;20624;55.870;26.506;2024-01-15T01:36:08;6.30;;;2.38;;
34359;SDS011;20624;55.870;26.506;2024-01-15T01:38:37;4.07;;;2.08;;
34359;SDS011;20624;55.870;26.506;2024-01-15T01:41:05;4.55;;;2.00;;
34359;SDS011;20624;55.870;26.506;2024-01-15T01:43:32;5.75;;;2.60;;
34359;SDS011;20624;55.870;26.506;2024-01-15T01:46:00;4.80;;;2.00;;
34359;SDS011;20624;55.870;26.506;2024-01-15T01:48:29;3.47;;;1.80;;
34359;SDS011;20624;55.870;26.506;2024-01-15T01:50:58;5.15;;;1.92;;
34359;SDS011;20624;55.870;26.506;2024-01-15T01:53:28;6.57;;;2.10;;
34359;SDS011;20624;55.870;26.506;2024-01-15T01:55:56;5.05;;;1.90;;
34359;SDS011;20624;55.870;26.506;2024-01-15T01:58:25;3.95;;;1.70;;
34359;SDS011;20624;55.870;26.506;2024-01-15T02:00:55;5.18;;;2.28;;
34359;SDS011;20624;55.870;26.506;2024-01-15T02:03:23;5.57;;;2.17;;
34359;SDS011;20624;55.870;26.506;2024-01-15T02:05:50;5.80;;;2.28;;
34359;SDS011;20624;55.870;26.506;2024-01-15T02:08:19;7.93;;;3.28;;
34359;SDS011;20624;55.870;26.506;2024-01-15T02:10:47;7.35;;;3.03;;
34359;SDS011;20624;55.870;26.506;2024-01-15T02:13:14;8.05;;;2.88;;
34359;SDS011;20624;55.870;26.506;2024-01-15T02:15:42;5.13;;;2.25;;
34359;SDS011;20624;55.870;26.506;2024-01-15T02:18:10;7.68;;;2.70;;
34359;SDS011;20624;55.870;26.506;2024-01-15T02:20:38;6.53;;;1.92;;
34359;SDS011;20624;55.870;26.506;2024-01-15T02:25:34;5.18;;;1.58;;
34359;SDS011;20624;55.870;26.506;2024-01-15T02:28:03;8.15;;;2.67;;
34359;SDS011;20624;55.870;26.506;2024-01-15T02:30:31;5.03;;;1.60;;
34359;SDS011;20624;55.870;26.506;2024-01-15T02:32:59;3.28;;;1.40;;
34359;SDS011;20624;55.870;26.506;2024-01-15T02:35:27;4.28;;;1.55;;
34359;SDS011;20624;55.870;26.506;2024-01-15T02:37:55;4.80;;;1.70;;
34359;SDS011;20624;55.870;26.506;2024-01-15T02:40:23;3.00;;;1.52;;
34359;SDS011;20624;55.870;26.506;2024-01-15T02:42:50;4.05;;;1.83;;
34359;SDS011;20624;55.870;26.506;2024-01-15T02:45:19;3.28;;;1.50;;
34359;SDS011;20624;55.870;26.506;2024-01-15T02:47:46;2.90;;;1.50;;
34359;SDS011;20624;55.870;26.506;2024-01-15T02:50:14;4.40;;;1.85;;
34359;SDS011;20624;55.870;26.506;2024-01-15T02:52:42;3.42;;;1.73;;
34359;SDS011;20624;55.870;26.506;2024-01-15T02:55:10;4.65;;;2.35;;
34359;SDS011;20624;55.870;26.506;2024-01-15T02:57:38;6.45;;;3.05;;
34359;SDS011;20624;55.870;26.506;2024-01-15T03:00:08;4.80;;;2.58;;
34359;SDS011;20624;55.870;26.506;2024-01-15T03:02:36;4.13;;;1.88;;
34359;SDS011;20624;55.870;26.506;2024-01-15T03:05:09;2.83;;;1.30;;
34359;SDS011;20624;55.870;26.506;2024-01-15T03:07:37;5.60;;;1.85;;
34359;SDS011;20624;55.870;26.506;2024-01-15T03:10:05;3.40;;;1.40;;
34359;SDS011;20624;55.870;26.506;2024-01-15T03:12:33;4.28;;;2.05;;
34359;SDS011;20624;55.870;26.506;2024-01-15T03:15:01;4.28;;;1.77;;
34359;SDS011;20624;55.870;26.506;2024-01-15T03:17:29;3.83;;;1.70;;
34359;SDS011;20624;55.870;26.506;2024-01-15T03:19:57;2.70;;;1.20;;
34359;SDS011;20624;55.870;26.506;2024-01-15T03:22:25;4.07;;;1.50;;
34359;SDS011;20624;55.870;26.506;2024-01-15T03:24:53;4.40;;;1.60;;
34359;SDS011;20624;55.870;26.506;2024-01-15T03:27:21;2.88;;;1.40;;
34359;SDS011;20624;55.870;26.506;2024-01-15T03:29:49;5.20;;;1.95;;
34359;SDS011;20624;55.870;26.506;2024-01-15T03:32:17;3.63;;;1.48;;
34359;SDS011;20624;55.870;26.506;2024-01-15T03:34:46;7.60;;;2.83;;
34359;SDS011;20624;55.870;26.506;2024-01-15T03:37:15;3.55;;;2.10;;
34359;SDS011;20624;55.870;26.506;2024-01-15T03:39:42;5.45;;;2.00;;
34359;SDS011;20624;55.870;26.506;2024-01-15T03:42:14;6.07;;;3.03;;
34359;SDS011;20624;55.870;26.506;2024-01-15T03:44:42;3.33;;;1.42;;
34359;SDS011;20624;55.870;26.506;2024-01-15T03:47:10;3.72;;;2.03;;
34359;SDS011;20624;55.870;26.506;2024-01-15T03:49:38;4.10;;;1.55;;
34359;SDS011;20624;55.870;26.506;2024-01-15T03:52:06;3.53;;;1.70;;
34359;SDS011;20624;55.870;26.506;2024-01-15T03:54:34;4.13;;;1.75;;
34359;SDS011;20624;55.870;26.506;2024-01-15T03:57:02;4.80;;;2.25;;
34359;SDS011;20624;55.870;26.506;2024-01-15T03:59:29;5.97;;;2.25;;
34359;SDS011;20624;55.870;26.506;2024-01-15T04:01:58;5.47;;;2.35;;
34359;SDS011;20624;55.870;26.506;2024-01-15T04:04:26;5.20;;;2.65;;
34359;SDS011;20624;55.870;26.506;2024-01-15T04:06:54;6.05;;;2.17;;
34359;SDS011;20624;55.870;26.506;2024-01-15T04:09:22;4.07;;;1.40;;
34359;SDS011;20624;55.870;26.506;2024-01-15T04:11:50;8.02;;;2.00;;
34359;SDS011;20624;55.870;26.506;2024-01-15T04:14:18;7.10;;;3.15;;
34359;SDS011;20624;55.870;26.506;2024-01-15T04:16:46;14.60;;;8.02;;
34359;SDS011;20624;55.870;26.506;2024-01-15T04:19:14;15.10;;;9.35;;
34359;SDS011;20624;55.870;26.506;2024-01-15T04:21:42;16.75;;;10.60;;
34359;SDS011;20624;55.870;26.506;2024-01-15T04:24:10;24.10;;;14.13;;
34359;SDS011;20624;55.870;26.506;2024-01-15T04:26:38;9.00;;;5.03;;
34359;SDS011;20624;55.870;26.506;2024-01-15T04:29:05;11.80;;;5.05;;
34359;SDS011;20624;55.870;26.506;2024-01-15T04:31:33;10.75;;;4.85;;
34359;SDS011;20624;55.870;26.506;2024-01-15T04:34:02;14.70;;;6.18;;
34359;SDS011;20624;55.870;26.506;2024-01-15T04:36:30;24.90;;;12.57;;
34359;SDS011;20624;55.870;26.506;2024-01-15T04:38:58;23.10;;;13.10;;
34359;SDS011;20624;55.870;26.506;2024-01-15T04:41:25;26.15;;;11.90;;
34359;SDS011;20624;55.870;26.506;2024-01-15T04:43:53;16.50;;;8.90;;
34359;SDS011;20624;55.870;26.506;2024-01-15T04:46:21;10.38;;;6.05;;
34359;SDS011;20624;55.870;26.506;2024-01-15T04:48:49;8.07;;;4.30;;
34359;SDS011;20624;55.870;26.506;2024-01-15T04:51:17;8.25;;;4.63;;
34359;SDS011;20624;55.870;26.506;2024-01-15T04:53:45;9.98;;;4.63;;
34359;SDS011;20624;55.870;26.506;2024-01-15T04:56:13;5.00;;;2.90;;
34359;SDS011;20624;55.870;26.506;2024-01-15T04:58:41;7.05;;;3.22;;
34359;SDS011;20624;55.870;26.506;2024-01-15T05:01:11;9.63;;;5.43;;
34359;SDS011;20624;55.870;26.506;2024-01-15T05:03:40;11.85;;;6.00;;
34359;SDS011;20624;55.870;26.506;2024-01-15T05:06:08;12.30;;;6.63;;
34359;SDS011;20624;55.870;26.506;2024-01-15T05:08:36;9.75;;;5.13;;
34359;SDS011;20624;55.870;26.506;2024-01-15T05:11:04;12.43;;;6.13;;
34359;SDS011;20624;55.870;26.506;2024-01-15T05:13:32;14.05;;;7.07;;
34359;SDS011;20624;55.870;26.506;2024-01-15T05:15:59;18.55;;;8.98;;
34359;SDS011;20624;55.870;26.506;2024-01-15T05:18:28;17.63;;;9.70;;
34359;SDS011;20624;55.870;26.506;2024-01-15T05:20:56;25.30;;;12.55;;
34359;SDS011;20624;55.870;26.506;2024-01-15T05:23:24;25.90;;;13.32;;
34359;SDS011;20624;55.870;26.506;2024-01-15T05:25:52;28.85;;;15.88;;
34359;SDS011;20624;55.870;26.506;2024-01-15T05:28:19;26.80;;;15.70;;
34359;SDS011;20624;55.870;26.506;2024-01-15T05:30:47;23.50;;;13.35;;
34359;SDS011;20624;55.870;26.506;2024-01-15T05:33:17;16.08;;;8.35;;
34359;SDS011;20624;55.870;26.506;2024-01-15T05:35:44;20.73;;;10.70;;
34359;SDS011;20624;55.870;26.506;2024-01-15T05:38:12;13.13;;;6.15;;
34359;SDS011;20624;55.870;26.506;2024-01-15T05:40:40;13.45;;;7.50;;
34359;SDS011;20624;55.870;26.506;2024-01-15T05:43:08;11.85;;;8.63;;
34359;SDS011;20624;55.870;26.506;2024-01-15T05:45:37;7.68;;;4.13;;
34359;SDS011;20624;55.870;26.506;2024-01-15T05:48:06;9.30;;;5.75;;
34359;SDS011;20624;55.870;26.506;2024-01-15T05:50:34;8.95;;;5.18;;
34359;SDS011;20624;55.870;26.506;2024-01-15T05:53:02;12.50;;;5.32;;
34359;SDS011;20624;55.870;26.506;2024-01-15T05:55:30;12.15;;;8.18;;
34359;SDS011;20624;55.870;26.506;2024-01-15T05:57:58;16.23;;;8.15;;
34359;SDS011;20624;55.870;26.506;2024-01-15T06:00:27;25.10;;;8.18;;
34359;SDS011;20624;55.870;26.506;2024-01-15T06:02:55;12.00;;;4.57;;
34359;SDS011;20624;55.870;26.506;2024-01-15T06:05:23;9.80;;;4.15;;
34359;SDS011;20624;55.870;26.506;2024-01-15T06:07:51;14.60;;;4.35;;
34359;SDS011;20624;55.870;26.506;2024-01-15T06:10:19;12.95;;;4.28;;
34359;SDS011;20624;55.870;26.506;2024-01-15T06:12:47;10.27;;;4.25;;
34359;SDS011;20624;55.870;26.506;2024-01-15T06:15:15;18.10;;;5.82;;
34359;SDS011;20624;55.870;26.506;2024-01-15T06:17:43;18.10;;;7.18;;
34359;SDS011;20624;55.870;26.506;2024-01-15T06:20:11;20.95;;;6.72;;
34359;SDS011;20624;55.870;26.506;2024-01-15T06:22:39;10.98;;;4.90;;
34359;SDS011;20624;55.870;26.506;2024-01-15T06:25:07;13.38;;;4.93;;
34359;SDS011;20624;55.870;26.506;2024-01-15T06:27:35;13.65;;;5.93;;
34359;SDS011;20624;55.870;26.506;2024-01-15T06:30:03;16.70;;;8.27;;
34359;SDS011;20624;55.870;26.506;2024-01-15T06:32:31;23.05;;;8.55;;
34359;SDS011;20624;55.870;26.506;2024-01-15T06:34:59;25.15;;;8.27;;
34359;SDS011;20624;55.870;26.506;2024-01-15T06:37:27;13.10;;;6.32;;
34359;SDS011;20624;55.870;26.506;2024-01-15T06:39:55;16.25;;;7.97;;
34359;SDS011;20624;55.870;26.506;2024-01-15T06:42:24;11.43;;;5.88;;
34359;SDS011;20624;55.870;26.506;2024-01-15T06:44:52;20.20;;;7.40;;
34359;SDS011;20624;55.870;26.506;2024-01-15T06:47:20;26.40;;;8.65;;
34359;SDS011;20624;55.870;26.506;2024-01-15T06:49:48;17.60;;;6.00;;
34359;SDS011;20624;55.870;26.506;2024-01-15T06:52:17;41.17;;;13.48;;
34359;SDS011;20624;55.870;26.506;2024-01-15T06:54:45;33.00;;;10.40;;
34359;SDS011;20624;55.870;26.506;2024-01-15T06:57:13;27.80;;;11.98;;
34359;SDS011;20624;55.870;26.506;2024-01-15T06:59:40;28.48;;;9.20;;
34359;SDS011;20624;55.870;26.506;2024-01-15T07:02:08;15.85;;;5.60;;
34359;SDS011;20624;55.870;26.506;2024-01-15T07:04:36;22.55;;;6.45;;
34359;SDS011;20624;55.870;26.506;2024-01-15T07:07:08;21.42;;;6.85;;
34359;SDS011;20624;55.870;26.506;2024-01-15T07:09:36;20.30;;;6.05;;
34359;SDS011;20624;55.870;26.506;2024-01-15T07:12:04;23.80;;;7.07;;
34359;SDS011;20624;55.870;26.506;2024-01-15T07:14:32;18.25;;;6.28;;
34359;SDS011;20624;55.870;26.506;2024-01-15T07:17:00;26.77;;;8.25;;
34359;SDS011;20624;55.870;26.506;2024-01-15T07:19:28;23.67;;;7.90;;
34359;SDS011;20624;55.870;26.506;2024-01-15T07:21:56;15.98;;;6.32;;
34359;SDS011;20624;55.870;26.506;2024-01-15T07:24:24;21.23;;;8.68;;
34359;SDS011;20624;55.870;26.506;2024-01-15T07:26:52;17.05;;;6.25;;
34359;SDS011;20624;55.870;26.506;2024-01-15T07:29:23;22.42;;;6.93;;
34359;SDS011;20624;55.870;26.506;2024-01-15T07:31:51;23.45;;;7.53;;
34359;SDS011;20624;55.870;26.506;2024-01-15T07:34:19;24.75;;;7.95;;
34359;SDS011;20624;55.870;26.506;2024-01-15T07:36:47;26.10;;;7.63;;
34359;SDS011;20624;55.870;26.506;2024-01-15T07:39:15;39.70;;;9.90;;
34359;SDS011;20624;55.870;26.506;2024-01-15T07:41:43;22.55;;;7.30;;
34359;SDS011;20624;55.870;26.506;2024-01-15T07:44:11;32.25;;;9.40;;
34359;SDS011;20624;55.870;26.506;2024-01-15T07:46:39;18.27;;;6.97;;
34359;SDS011;20624;55.870;26.506;2024-01-15T07:49:07;21.90;;;5.78;;
34359;SDS011;20624;55.870;26.506;2024-01-15T07:51:35;21.55;;;6.63;;
34359;SDS011;20624;55.870;26.506;2024-01-15T07:54:03;22.98;;;5.93;;
34359;SDS011;20624;55.870;26.506;2024-01-15T07:56:31;23.95;;;7.60;;
34359;SDS011;20624;55.870;26.506;2024-01-15T07:58:59;29.02;;;8.85;;
34359;SDS011;20624;55.870;26.506;2024-01-15T08:01:27;21.52;;;9.80;;
34359;SDS011;20624;55.870;26.506;2024-01-15T08:03:56;22.75;;;10.13;;
34359;SDS011;20624;55.870;26.506;2024-01-15T08:06:24;26.02;;;9.05;;
34359;SDS011;20624;55.870;26.506;2024-01-15T08:08:51;14.73;;;6.78;;
34359;SDS011;20624;55.870;26.506;2024-01-15T08:11:19;23.33;;;8.35;;
34359;SDS011;20624;55.870;26.506;2024-01-15T08:13:47;18.95;;;5.90;;
34359;SDS011;20624;55.870;26.506;2024-01-15T08:16:15;20.67;;;7.05;;
34359;SDS011;20624;55.870;26.506;2024-01-15T08:18:43;22.73;;;6.40;;
34359;SDS011;20624;55.870;26.506;2024-01-15T08:21:11;26.17;;;7.32;;
34359;SDS011;20624;55.870;26.506;2024-01-15T08:23:40;15.63;;;4.63;;
34359;SDS011;20624;55.870;26.506;2024-01-15T08:26:08;20.20;;;6.28;;
34359;SDS011;20624;55.870;26.506;2024-01-15T08:28:36;20.15;;;6.03;;
34359;SDS011;20624;55.870;26.506;2024-01-15T08:31:05;23.58;;;5.88;;
34359;SDS011;20624;55.870;26.506;2024-01-15T08:33:36;15.50;;;4.95;;
34359;SDS011;20624;55.870;26.506;2024-01-15T08:36:04;16.08;;;4.65;;
34359;SDS011;20624;55.870;26.506;2024-01-15T08:38:32;12.63;;;3.95;;
34359;SDS011;20624;55.870;26.506;2024-01-15T08:41:00;13.55;;;3.80;;
34359;SDS011;20624;55.870;26.506;2024-01-15T08:43:28;16.77;;;5.43;;
34359;SDS011;20624;55.870;26.506;2024-01-15T08:45:57;21.90;;;5.45;;
34359;SDS011;20624;55.870;26.506;2024-01-15T08:48:25;16.20;;;4.43;;
34359;SDS011;20624;55.870;26.506;2024-01-15T08:50:56;16.67;;;5.25;;
34359;SDS011;20624;55.870;26.506;2024-01-15T08:53:24;21.38;;;5.97;;
34359;SDS011;20624;55.870;26.506;2024-01-15T08:55:52;18.08;;;6.10;;
34359;SDS011;20624;55.870;26.506;2024-01-15T08:58:23;28.52;;;8.07;;
34359;SDS011;20624;55.870;26.506;2024-01-15T09:00:51;17.33;;;5.63;;
34359;SDS011;20624;55.870;26.506;2024-01-15T09:03:19;11.60;;;3.75;;
34359;SDS011;20624;55.870;26.506;2024-01-15T09:05:47;17.67;;;5.00;;
34359;SDS011;20624;55.870;26.506;2024-01-15T09:08:16;13.13;;;5.10;;
34359;SDS011;20624;55.870;26.506;2024-01-15T09:10:44;14.20;;;4.35;;
34359;SDS011;20624;55.870;26.506;2024-01-15T09:13:12;11.38;;;4.30;;
34359;SDS011;20624;55.870;26.506;2024-01-15T09:15:40;22.83;;;6.28;;
34359;SDS011;20624;55.870;26.506;2024-01-15T09:18:10;11.18;;;3.28;;
34359;SDS011;20624;55.870;26.506;2024-01-15T09:20:39;19.52;;;4.72;;
34359;SDS011;20624;55.870;26.506;2024-01-15T09:23:07;17.25;;;4.68;;
34359;SDS011;20624;55.870;26.506;2024-01-15T09:25:34;18.55;;;5.55;;
34359;SDS011;20624;55.870;26.506;2024-01-15T09:28:03;12.80;;;3.63;;
34359;SDS011;20624;55.870;26.506;2024-01-15T09:30:31;22.45;;;8.05;;
34359;SDS011;20624;55.870;26.506;2024-01-15T09:32:59;23.27;;;6.00;;
34359;SDS011;20624;55.870;26.506;2024-01-15T09:35:27;11.20;;;3.67;;
34359;SDS011;20624;55.870;26.506;2024-01-15T09:37:55;20.92;;;5.53;;
34359;SDS011;20624;55.870;26.506;2024-01-15T09:40:23;14.63;;;3.70;;
34359;SDS011;20624;55.870;26.506;2024-01-15T09:42:51;30.77;;;6.28;;
34359;SDS011;20624;55.870;26.506;2024-01-15T09:45:19;22.35;;;5.10;;
34359;SDS011;20624;55.870;26.506;2024-01-15T09:47:47;16.60;;;3.90;;
34359;SDS011;20624;55.870;26.506;2024-01-15T09:50:15;14.68;;;3.38;;
34359;SDS011;20624;55.870;26.506;2024-01-15T09:52:44;28.60;;;5.72;;
34359;SDS011;20624;55.870;26.506;2024-01-15T09:55:13;20.77;;;4.78;;
34359;SDS011;20624;55.870;26.506;2024-01-15T09:57:43;24.75;;;6.05;;
34359;SDS011;20624;55.870;26.506;2024-01-15T10:00:17;13.25;;;4.25;;
34359;SDS011;20624;55.870;26.506;2024-01-15T10:02:45;18.70;;;4.28;;
34359;SDS011;20624;55.870;26.506;2024-01-15T10:05:13;14.85;;;4.05;;
34359;SDS011;20624;55.870;26.506;2024-01-15T10:07:41;19.13;;;4.47;;
34359;SDS011;20624;55.870;26.506;2024-01-15T10:10:10;20.10;;;5.63;;
34359;SDS011;20624;55.870;26.506;2024-01-15T10:12:39;20.52;;;5.65;;
34359;SDS011;20624;55.870;26.506;2024-01-15T10:15:09;13.77;;;4.00;;
34359;SDS011;20624;55.870;26.506;2024-01-15T10:17:38;12.90;;;3.70;;
34359;SDS011;20624;55.870;26.506;2024-01-15T10:20:10;14.02;;;3.47;;
34359;SDS011;20624;55.870;26.506;2024-01-15T10:22:41;8.13;;;2.58;;
34359;SDS011;20624;55.870;26.506;2024-01-15T10:25:18;21.20;;;4.85;;
34359;SDS011;20624;55.870;26.506;2024-01-15T10:28:09;12.65;;;3.25;;
34359;SDS011;20624;55.870;26.506;2024-01-15T10:30:37;16.02;;;4.43;;
34359;SDS011;20624;55.870;26.506;2024-01-15T10:33:05;21.65;;;5.32;;
34359;SDS011;20624;55.870;26.506;2024-01-15T10:35:34;12.15;;;3.33;;
34359;SDS011;20624;55.870;26.506;2024-01-15T10:38:02;14.07;;;3.85;;
34359;SDS011;20624;55.870;26.506;2024-01-15T10:40:29;13.45;;;4.47;;
34359;SDS011;20624;55.870;26.506;2024-01-15T10:42:57;21.55;;;5.75;;
34359;SDS011;20624;55.870;26.506;2024-01-15T10:45:25;30.10;;;8.30;;
34359;SDS011;20624;55.870;26.506;2024-01-15T10:47:54;36.30;;;8.63;;
34359;SDS011;20624;55.870;26.506;2024-01-15T10:50:26;16.90;;;5.45;;
34359;SDS011;20624;55.870;26.506;2024-01-15T10:52:54;22.80;;;5.70;;
34359;SDS011;20624;55.870;26.506;2024-01-15T10:55:23;18.95;;;4.68;;
34359;SDS011;20624;55.870;26.506;2024-01-15T10:57:51;23.30;;;6.38;;
34359;SDS011;20624;55.870;26.506;2024-01-15T11:00:20;11.57;;;3.92;;
34359;SDS011;20624;55.870;26.506;2024-01-15T11:02:48;18.58;;;4.78;;
34359;SDS011;20624;55.870;26.506;2024-01-15T11:05:18;19.88;;;5.47;;
34359;SDS011;20624;55.870;26.506;2024-01-15T11:07:48;15.02;;;5.80;;
34359;SDS011;20624;55.870;26.506;2024-01-15T11:13:14;22.70;;;6.13;;
34359;SDS011;20624;55.870;26.506;2024-01-15T11:15:57;21.70;;;5.40;;
34359;SDS011;20624;55.870;26.506;2024-01-15T11:18:28;13.95;;;4.00;;
34359;SDS011;20624;55.870;26.506;2024-01-15T11:23:43;17.42;;;5.30;;
34359;SDS011;20624;55.870;26.506;2024-01-15T11:29:06;29.63;;;7.43;;
34359;SDS011;20624;55.870;26.506;2024-01-15T11:34:07;20.13;;;6.13;;
34359;SDS011;20624;55.870;26.506;2024-01-15T11:41:59;33.72;;;9.32;;
34359;SDS011;20624;55.870;26.506;2024-01-15T11:44:27;27.40;;;6.28;;
34359;SDS011;20624;55.870;26.506;2024-01-15T11:47:02;23.40;;;5.82;;
34359;SDS011;20624;55.870;26.506;2024-01-15T11:52:02;30.55;;;7.43;;
34359;SDS011;20624;55.870;26.506;2024-01-15T11:54:33;22.50;;;6.47;;
34359;SDS011;20624;55.870;26.506;2024-01-15T11:57:15;41.42;;;8.85;;
34359;SDS011;20624;55.870;26.506;2024-01-15T11:59:52;17.90;;;4.93;;
34359;SDS011;20624;55.870;26.506;2024-01-15T12:02:21;33.95;;;7.57;;
34359;SDS011;20624;55.870;26.506;2024-01-15T12:04:49;33.65;;;7.75;;
34359;SDS011;20624;55.870;26.506;2024-01-15T12:07:17;32.35;;;8.00;;
34359;SDS011;20624;55.870;26.506;2024-01-15T12:09:45;20.80;;;6.05;;
34359;SDS011;20624;55.870;26.506;2024-01-15T12:12:16;16.33;;;5.80;;
34359;SDS011;20624;55.870;26.506;2024-01-15T12:15:01;30.02;;;8.48;;
34359;SDS011;20624;55.870;26.506;2024-01-15T12:17:30;17.15;;;5.22;;
34359;SDS011;20624;55.870;26.506;2024-01-15T12:19:58;19.33;;;5.43;;
34359;SDS011;20624;55.870;26.506;2024-01-15T12:22:26;31.30;;;8.45;;
34359;SDS011;20624;55.870;26.506;2024-01-15T12:24:54;31.00;;;10.55;;
34359;SDS011;20624;55.870;26.506;2024-01-15T12:27:25;31.15;;;9.52;;
34359;SDS011;20624;55.870;26.506;2024-01-15T12:29:53;25.60;;;7.97;;
34359;SDS011;20624;55.870;26.506;2024-01-15T12:32:21;18.23;;;7.05;;
34359;SDS011;20624;55.870;26.506;2024-01-15T12:34:49;31.83;;;7.72;;
34359;SDS011;20624;55.870;26.506;2024-01-15T12:37:20;20.65;;;6.80;;
34359;SDS011;20624;55.870;26.506;2024-01-15T12:39:48;26.25;;;10.05;;
34359;SDS011;20624;55.870;26.506;2024-01-15T12:42:16;26.02;;;8.18;;
34359;SDS011;20624;55.870;26.506;2024-01-15T12:44:44;20.92;;;7.40;;
34359;SDS011;20624;55.870;26.506;2024-01-15T12:47:12;17.70;;;5.85;;
34359;SDS011;20624;55.870;26.506;2024-01-15T12:49:46;17.50;;;5.47;;
34359;SDS011;20624;55.870;26.506;2024-01-15T12:52:15;19.90;;;6.60;;
34359;SDS011;20624;55.870;26.506;2024-01-15T12:54:43;14.23;;;4.47;;
34359;SDS011;20624;55.870;26.506;2024-01-15T12:57:11;14.30;;;5.10;;
34359;SDS011;20624;55.870;26.506;2024-01-15T12:59:39;17.08;;;5.25;;
34359;SDS011;20624;55.870;26.506;2024-01-15T13:02:08;24.63;;;6.18;;
34359;SDS011;20624;55.870;26.506;2024-01-15T13:04:36;30.52;;;7.60;;
34359;SDS011;20624;55.870;26.506;2024-01-15T13:07:05;17.67;;;5.93;;
34359;SDS011;20624;55.870;26.506;2024-01-15T13:09:33;16.35;;;6.10;;
34359;SDS011;20624;55.870;26.506;2024-01-15T13:12:02;15.77;;;5.60;;
34359;SDS011;20624;55.870;26.506;2024-01-15T13:14:30;13.30;;;4.97;;
34359;SDS011;20624;55.870;26.506;2024-01-15T13:16:59;18.70;;;4.90;;
34359;SDS011;20624;55.870;26.506;2024-01-15T13:19:27;16.13;;;4.93;;
34359;SDS011;20624;55.870;26.506;2024-01-15T13:21:55;24.98;;;6.45;;
34359;SDS011;20624;55.870;26.506;2024-01-15T13:24:25;19.73;;;6.03;;
34359;SDS011;20624;55.870;26.506;2024-01-15T13:26:53;27.80;;;8.18;;
34359;SDS011;20624;55.870;26.506;2024-01-15T13:29:21;14.73;;;4.38;;
34359;SDS011;20624;55.870;26.506;2024-01-15T13:31:49;21.75;;;5.65;;
34359;SDS011;20624;55.870;26.506;2024-01-15T13:34:17;25.52;;;8.95;;
34359;SDS011;20624;55.870;26.506;2024-01-15T13:36:45;24.48;;;8.13;;
34359;SDS011;20624;55.870;26.506;2024-01-15T13:39:14;36.67;;;11.63;;
34359;SDS011;20624;55.870;26.506;2024-01-15T13:41:46;58.50;;;15.45;;
34359;SDS011;20624;55.870;26.506;2024-01-15T13:44:14;45.47;;;12.85;;
34359;SDS011;20624;55.870;26.506;2024-01-15T13:46:42;50.67;;;13.48;;
34359;SDS011;20624;55.870;26.506;2024-01-15T13:49:11;35.83;;;10.90;;
34359;SDS011;20624;55.870;26.506;2024-01-15T13:51:39;32.63;;;10.73;;
34359;SDS011;20624;55.870;26.506;2024-01-15T13:54:07;39.90;;;12.85;;
34359;SDS011;20624;55.870;26.506;2024-01-15T13:56:35;35.55;;;10.75;;
34359;SDS011;20624;55.870;26.506;2024-01-15T13:59:03;36.15;;;11.90;;
34359;SDS011;20624;55.870;26.506;2024-01-15T14:01:32;39.85;;;12.88;;
34359;SDS011;20624;55.870;26.506;2024-01-15T14:04:00;44.60;;;15.02;;
34359;SDS011;20624;55.870;26.506;2024-01-15T14:06:29;28.38;;;10.07;;
34359;SDS011;20624;55.870;26.506;2024-01-15T14:08:57;29.25;;;10.43;;
34359;SDS011;20624;55.870;26.506;2024-01-15T14:11:25;36.50;;;13.07;;
34359;SDS011;20624;55.870;26.506;2024-01-15T14:13:53;24.92;;;10.05;;
34359;SDS011;20624;55.870;26.506;2024-01-15T14:16:21;20.77;;;7.22;;
34359;SDS011;20624;55.870;26.506;2024-01-15T14:18:51;26.10;;;8.57;;
34359;SDS011;20624;55.870;26.506;2024-01-15T14:21:19;26.23;;;9.20;;
34359;SDS011;20624;55.870;26.506;2024-01-15T14:23:47;14.27;;;6.30;;
34359;SDS011;20624;55.870;26.506;2024-01-15T14:26:15;19.83;;;6.95;;
34359;SDS011;20624;55.870;26.506;2024-01-15T14:28:43;20.90;;;6.68;;
34359;SDS011;20624;55.870;26.506;2024-01-15T14:31:15;27.58;;;7.47;;
34359;SDS011;20624;55.870;26.506;2024-01-15T14:33:43;24.02;;;7.05;;
34359;SDS011;20624;55.870;26.506;2024-01-15T14:36:11;20.70;;;6.78;;
34359;SDS011;20624;55.870;26.506;2024-01-15T14:38:39;15.00;;;4.97;;
34359;SDS011;20624;55.870;26.506;2024-01-15T14:41:08;18.15;;;5.88;;
34359;SDS011;20624;55.870;26.506;2024-01-15T14:43:36;24.17;;;6.70;;
34359;SDS011;20624;55.870;26.506;2024-01-15T14:46:04;14.35;;;5.40;;
34359;SDS011;20624;55.870;26.506;2024-01-15T14:48:33;13.25;;;4.82;;
34359;SDS011;20624;55.870;26.506;2024-01-15T14:51:01;19.45;;;6.38;;
34359;SDS011;20624;55.870;26.506;2024-01-15T14:53:29;25.05;;;7.35;;